Time;durP1;ratioP1;P1;durP2;ratioP2;P2;SDS_P1;SDS_P2;PMS_P1;PMS_P2;Temp;Humidity;BMP_temperature;BMP_pressure;BME280_temperature;BME280_humidity;BME280_pressure;Samples;Min_cycle;Max_cycle;Signal;HPM_P1;HPM_P2
2024/01/09 00:00:42;;;;;;;1.52;0.85;;;-0.40;59.70;;;;;;5045838;28;20530;-63
2024/01/09 00:03:08;;;;;;;1.05;0.98;;;-0.40;59.70;;;;;;5058425;28;20508;-64
2024/01/09 00:05:34;;;;;;;1.20;1.08;;;-0.40;59.70;;;;;;5054508;28;20105;-63
2024/01/09 00:07:59;;;;;;;0.85;0.80;;;-0.40;59.60;;;;;;5055465;28;20034;-64
2024/01/09 00:10:26;;;;;;;1.13;0.82;;;-0.40;59.60;;;;;;5049480;28;20021;-63
2024/01/09 00:12:51;;;;;;;0.80;0.80;;;-0.40;59.60;;;;;;5055764;28;20033;-64
2024/01/09 00:15:17;;;;;;;0.68;0.68;;;-0.50;59.60;;;;;;5053439;28;20039;-64
2024/01/09 00:17:43;;;;;;;1.65;0.80;;;-0.50;59.70;;;;;;5051363;28;20500;-64
2024/01/09 00:20:09;;;;;;;0.50;0.50;;;-0.50;59.80;;;;;;5052745;28;20064;-63
2024/01/09 00:22:35;;;;;;;3.03;0.90;;;-0.50;59.90;;;;;;5053517;28;20032;-63
2024/01/09 00:25:01;;;;;;;3.20;0.90;;;-0.50;59.70;;;;;;5057072;28;20078;-62
2024/01/09 00:27:26;;;;;;;1.38;0.93;;;-0.50;59.80;;;;;;5054018;28;20082;-63
2024/01/09 00:29:52;;;;;;;0.90;0.80;;;-0.50;59.80;;;;;;5049280;28;20116;-63
2024/01/09 00:32:18;;;;;;;1.40;0.60;;;-0.50;59.80;;;;;;5050751;28;20087;-63
2024/01/09 00:34:44;;;;;;;1.38;0.75;;;-0.50;59.80;;;;;;5048793;28;20033;-62
2024/01/09 00:37:09;;;;;;;0.77;0.60;;;-0.60;59.80;;;;;;5049915;28;20029;-62
2024/01/09 00:39:35;;;;;;;1.48;0.70;;;-0.60;59.80;;;;;;5055948;28;20095;-62
2024/01/09 00:42:01;;;;;;;1.33;0.98;;;-0.50;59.90;;;;;;5048002;28;20112;-64
2024/01/09 00:44:26;;;;;;;1.48;0.38;;;-0.50;59.90;;;;;;5057074;28;20041;-64
2024/01/09 00:46:52;;;;;;;0.98;0.70;;;-0.50;60.00;;;;;;5052525;28;20039;-64
2024/01/09 00:49:18;;;;;;;0.60;0.60;;;-0.60;59.90;;;;;;5049701;28;20102;-64
2024/01/09 00:51:43;;;;;;;1.65;1.15;;;-0.60;59.90;;;;;;5053607;28;20318;-64
2024/01/09 00:54:09;;;;;;;1.70;0.95;;;-0.50;60.00;;;;;;5052904;28;21420;-64
2024/01/09 00:56:35;;;;;;;1.15;0.68;;;-0.50;60.00;;;;;;5046522;28;20025;-64
2024/01/09 00:59:00;;;;;;;1.50;1.10;;;-0.60;60.00;;;;;;5051719;28;20108;-64
2024/01/09 01:01:26;;;;;;;1.10;0.77;;;-0.60;60.10;;;;;;5054252;28;20488;-64
2024/01/09 01:03:52;;;;;;;1.02;0.60;;;-0.60;60.10;;;;;;5050489;28;20045;-63
2024/01/09 01:06:18;;;;;;;2.25;0.98;;;-0.70;60.00;;;;;;5046565;28;20044;-63
2024/01/09 01:08:52;;;;;;;1.20;0.90;;;-0.70;60.20;;;;;;5051714;28;20449;-64
2024/01/09 01:11:18;;;;;;;1.42;0.95;;;-0.70;60.30;;;;;;5051154;28;20429;-65
2024/01/09 01:13:43;;;;;;;3.42;1.02;;;-0.70;60.20;;;;;;5054565;28;20388;-65
2024/01/09 01:16:09;;;;;;;1.20;0.77;;;-0.70;60.20;;;;;;5049382;28;20017;-65
2024/01/09 01:18:35;;;;;;;0.82;0.70;;;-0.70;60.20;;;;;;5057283;28;20510;-65
2024/01/09 01:21:00;;;;;;;1.10;0.57;;;-0.70;60.20;;;;;;5051324;28;20044;-65
2024/01/09 01:23:26;;;;;;;1.17;0.57;;;-0.70;60.40;;;;;;5048250;28;20116;-65
2024/01/09 01:25:52;;;;;;;1.20;0.70;;;-0.70;60.40;;;;;;5050021;28;20501;-65
2024/01/09 01:28:18;;;;;;;3.58;1.00;;;-0.70;60.40;;;;;;5048780;28;20151;-65
2024/01/09 01:30:44;;;;;;;0.88;0.63;;;-0.80;60.40;;;;;;5054219;28;20067;-65
2024/01/09 01:33:10;;;;;;;0.80;0.80;;;-0.80;60.40;;;;;;5049391;28;20025;-65
2024/01/09 01:35:35;;;;;;;0.93;0.50;;;-0.70;60.50;;;;;;5047159;28;20029;-65
2024/01/09 01:38:01;;;;;;;1.77;0.80;;;-0.80;60.60;;;;;;5056748;28;20029;-65
2024/01/09 01:40:27;;;;;;;1.23;1.13;;;-0.80;60.60;;;;;;5032294;28;20485;-65
2024/01/09 01:42:56;;;;;;;2.00;0.98;;;-0.70;60.70;;;;;;5050986;28;20032;-65
2024/01/09 01:45:23;;;;;;;1.85;0.88;;;-0.70;60.70;;;;;;5050716;28;20079;-65
2024/01/09 01:47:49;;;;;;;0.88;0.60;;;-0.80;60.70;;;;;;5051011;28;20503;-66
2024/01/09 01:50:15;;;;;;;1.13;0.68;;;-0.80;60.80;;;;;;5046847;28;20064;-64
2024/01/09 01:52:43;;;;;;;0.70;0.50;;;-0.80;60.90;;;;;;5049183;28;21354;-65
2024/01/09 01:55:10;;;;;;;1.58;0.70;;;-0.80;60.90;;;;;;5055092;28;20534;-65
2024/01/09 01:57:37;;;;;;;2.67;0.60;;;-0.80;61.00;;;;;;5049600;28;20024;-65
2024/01/09 02:00:04;;;;;;;0.80;0.80;;;-0.80;61.00;;;;;;5046967;28;20140;-65
2024/01/09 02:02:31;;;;;;;2.33;0.60;;;-0.80;61.00;;;;;;5054953;28;20551;-65
2024/01/09 02:04:57;;;;;;;0.55;0.40;;;-0.90;61.00;;;;;;5048172;28;20058;-65
2024/01/09 02:07:25;;;;;;;1.92;0.90;;;-0.90;61.20;;;;;;5050204;28;20049;-65
2024/01/09 02:09:53;;;;;;;1.00;0.90;;;-0.90;61.30;;;;;;5049469;28;20044;-65
2024/01/09 02:12:19;;;;;;;0.93;0.85;;;-0.90;61.30;;;;;;5053051;28;20087;-65
2024/01/09 02:14:46;;;;;;;1.63;1.05;;;-0.90;61.40;;;;;;5043747;28;20097;-65
2024/01/09 02:17:13;;;;;;;1.02;0.95;;;-0.90;61.60;;;;;;5045510;28;20032;-64
2024/01/09 02:19:39;;;;;;;1.00;0.90;;;-0.90;61.70;;;;;;5046382;28;20108;-64
2024/01/09 02:22:05;;;;;;;0.70;0.68;;;-0.90;61.80;;;;;;5044367;28;20490;-64
2024/01/09 02:24:30;;;;;;;3.25;1.38;;;-1.00;61.80;;;;;;5037011;28;20033;-65
2024/01/09 02:27:20;;;;;;;3.42;0.90;;;-1.00;61.90;;;;;;5035400;28;20045;-64
2024/01/09 02:29:49;;;;;;;1.55;0.90;;;-1.00;62.00;;;;;;5039374;28;20528;-65
2024/01/09 02:32:19;;;;;;;4.68;0.95;;;-1.00;62.00;;;;;;5035839;28;20030;-65
2024/01/09 02:34:46;;;;;;;1.05;0.90;;;-1.00;62.10;;;;;;5062807;28;20473;-64
2024/01/09 02:37:12;;;;;;;1.25;0.95;;;-1.00;62.10;;;;;;5037219;28;20037;-64
2024/01/09 02:39:37;;;;;;;0.95;0.55;;;-1.00;62.20;;;;;;5038982;28;20037;-64
2024/01/09 02:42:04;;;;;;;1.45;0.93;;;-1.10;62.20;;;;;;5037562;28;20032;-64
2024/01/09 02:44:29;;;;;;;1.75;1.20;;;-1.10;62.30;;;;;;5029417;28;20361;-64
2024/01/09 02:46:55;;;;;;;2.25;1.17;;;-1.10;62.40;;;;;;5034943;28;20052;-64
2024/01/09 02:49:21;;;;;;;1.02;0.45;;;-1.20;62.50;;;;;;5030693;28;20049;-64
2024/01/09 02:51:47;;;;;;;1.15;0.65;;;-1.20;62.50;;;;;;5042096;28;20060;-64
2024/01/09 02:54:13;;;;;;;1.58;0.68;;;-1.20;62.60;;;;;;5041032;28;20029;-64
2024/01/09 02:56:39;;;;;;;2.17;1.20;;;-1.20;62.80;;;;;;5035500;28;20029;-64
2024/01/09 02:59:05;;;;;;;1.25;0.65;;;-1.20;62.90;;;;;;5038233;28;20047;-65
2024/01/09 03:01:31;;;;;;;7.20;1.15;;;-1.20;62.90;;;;;;5033213;28;20037;-65
2024/01/09 03:03:57;;;;;;;2.50;0.80;;;-1.20;63.00;;;;;;5035356;28;20356;-65
2024/01/09 03:06:23;;;;;;;1.25;1.02;;;-1.20;63.00;;;;;;5018361;28;20055;-65
2024/01/09 03:08:48;;;;;;;0.55;0.55;;;-1.20;63.00;;;;;;5036192;28;20053;-64
2024/01/09 03:11:15;;;;;;;3.60;0.60;;;-1.20;63.00;;;;;;5038177;28;20404;-65
2024/01/09 03:13:41;;;;;;;2.30;1.10;;;-1.20;63.10;;;;;;5033849;28;20538;-64
2024/01/09 03:16:11;;;;;;;1.58;0.82;;;-1.20;63.10;;;;;;5033384;28;20025;-64
2024/01/09 03:18:36;;;;;;;1.08;0.55;;;-1.30;63.10;;;;;;5031380;28;20037;-64
2024/01/09 03:21:02;;;;;;;1.42;0.73;;;-1.30;63.20;;;;;;5033895;28;20032;-65
2024/01/09 03:23:28;;;;;;;1.58;0.50;;;-1.30;63.30;;;;;;5033811;28;20036;-64
2024/01/09 03:25:54;;;;;;;1.10;0.77;;;-1.30;63.30;;;;;;5033630;28;20060;-64
2024/01/09 03:28:19;;;;;;;1.20;1.08;;;-1.30;63.40;;;;;;5039012;28;20077;-64
2024/01/09 03:30:45;;;;;;;2.05;0.88;;;-1.30;63.40;;;;;;5035405;28;20029;-64
2024/01/09 03:33:11;;;;;;;1.58;0.73;;;-1.30;63.50;;;;;;5035940;28;20057;-64
2024/01/09 03:35:36;;;;;;;1.27;1.15;;;-1.30;63.50;;;;;;5037111;28;20033;-64
2024/01/09 03:38:02;;;;;;;1.33;0.60;;;-1.30;63.60;;;;;;5031439;28;20018;-64
2024/01/09 03:40:28;;;;;;;1.75;1.13;;;-1.30;63.60;;;;;;5033093;28;20091;-65
2024/01/09 03:42:54;;;;;;;1.35;0.90;;;-1.30;63.60;;;;;;5036062;28;20543;-65
2024/01/09 03:45:21;;;;;;;1.25;0.80;;;-1.30;63.50;;;;;;5033152;28;20049;-64
2024/01/09 03:47:47;;;;;;;1.33;0.93;;;-1.30;63.60;;;;;;5036120;28;20033;-65
2024/01/09 03:50:13;;;;;;;0.73;0.68;;;-1.40;63.50;;;;;;5033800;28;20057;-65
2024/01/09 03:52:39;;;;;;;1.65;0.93;;;-1.40;63.60;;;;;;5036818;28;20034;-65
2024/01/09 03:55:05;;;;;;;3.75;0.73;;;-1.50;63.60;;;;;;5036845;28;20033;-65
2024/01/09 03:57:30;;;;;;;1.25;0.70;;;-1.40;63.70;;;;;;5036769;28;20555;-64
2024/01/09 03:59:56;;;;;;;1.92;1.20;;;-1.40;63.70;;;;;;5036107;28;20075;-64
2024/01/09 04:02:22;;;;;;;1.42;1.05;;;-1.40;63.70;;;;;;5035562;28;20029;-64
2024/01/09 04:04:48;;;;;;;1.35;0.85;;;-1.40;63.60;;;;;;5032992;28;20029;-64
2024/01/09 04:07:14;;;;;;;2.78;1.13;;;-1.40;63.60;;;;;;5037989;28;20147;-64
2024/01/09 04:09:39;;;;;;;1.52;0.80;;;-1.40;63.60;;;;;;5031345;28;20103;-64
2024/01/09 04:12:05;;;;;;;1.75;0.93;;;-1.40;63.60;;;;;;5066619;28;20612;-64
2024/01/09 04:14:31;;;;;;;1.30;0.60;;;-1.40;63.60;;;;;;5029416;28;20026;-64
2024/01/09 04:16:57;;;;;;;2.80;1.27;;;-1.40;63.50;;;;;;5031007;28;20053;-64
2024/01/09 04:19:22;;;;;;;1.98;0.77;;;-1.50;63.50;;;;;;5028605;28;20041;-64
2024/01/09 04:21:48;;;;;;;1.20;0.65;;;-1.50;63.60;;;;;;5026909;28;20080;-64
2024/01/09 04:24:14;;;;;;;1.35;1.15;;;-1.50;63.60;;;;;;5030669;28;20490;-64
2024/01/09 04:26:39;;;;;;;1.35;0.80;;;-1.60;63.60;;;;;;5032484;28;20500;-64
2024/01/09 04:29:05;;;;;;;5.18;1.70;;;-1.60;63.70;;;;;;5032700;28;20029;-65
2024/01/09 04:31:31;;;;;;;1.77;1.05;;;-1.60;63.70;;;;;;5036145;28;20139;-65
2024/01/09 04:33:57;;;;;;;0.98;0.65;;;-1.60;63.60;;;;;;5032842;28;20530;-65
2024/01/09 04:36:22;;;;;;;2.05;0.65;;;-1.60;63.60;;;;;;5032096;28;20423;-65
2024/01/09 04:38:48;;;;;;;1.75;0.90;;;-1.60;63.70;;;;;;5035404;28;20056;-65
2024/01/09 04:41:16;;;;;;;1.45;0.77;;;-1.60;63.70;;;;;;5064285;28;20087;-67
2024/01/09 04:43:42;;;;;;;1.55;0.80;;;-1.60;63.70;;;;;;5024184;28;20037;-68
2024/01/09 04:46:08;;;;;;;5.10;1.65;;;-1.60;63.70;;;;;;5034068;28;20040;-67
2024/01/09 04:48:33;;;;;;;1.75;0.77;;;-1.70;63.60;;;;;;5028717;28;20033;-64
2024/01/09 04:50:59;;;;;;;1.48;0.88;;;-1.70;63.60;;;;;;5037484;28;20460;-65
2024/01/09 04:53:25;;;;;;;1.70;1.08;;;-1.70;63.60;;;;;;5036677;28;20396;-64
2024/01/09 04:55:51;;;;;;;3.10;0.77;;;-1.70;63.50;;;;;;5040244;28;20025;-67
2024/01/09 04:58:16;;;;;;;1.58;0.90;;;-1.70;63.60;;;;;;5033447;28;20480;-66
2024/01/09 05:00:42;;;;;;;1.30;1.20;;;-1.60;63.70;;;;;;5031201;28;20040;-66
2024/01/09 05:03:08;;;;;;;2.25;0.63;;;-1.70;63.40;;;;;;5034972;28;20183;-67
2024/01/09 05:05:34;;;;;;;0.82;0.80;;;-1.70;63.30;;;;;;5015811;28;20555;-62
2024/01/09 05:07:59;;;;;;;2.20;0.90;;;-1.70;63.30;;;;;;5030289;28;20491;-63
2024/01/09 05:10:25;;;;;;;0.70;0.70;;;-1.70;63.30;;;;;;5058679;28;20022;-63
2024/01/09 05:12:51;;;;;;;1.60;1.13;;;-1.70;63.20;;;;;;5024546;28;20073;-63
2024/01/09 05:15:16;;;;;;;1.83;1.27;;;-1.70;63.20;;;;;;5031707;28;20025;-63
2024/01/09 05:17:42;;;;;;;4.43;1.10;;;-1.70;63.20;;;;;;5034596;28;20528;-63
2024/01/09 05:20:08;;;;;;;2.45;0.95;;;-1.70;63.30;;;;;;5028284;28;20752;-62
2024/01/09 05:22:37;;;;;;;3.95;1.02;;;-1.70;63.30;;;;;;5030430;28;20021;-63
2024/01/09 05:25:04;;;;;;;1.10;1.00;;;-1.70;63.20;;;;;;5032518;28;20154;-62
2024/01/09 05:27:30;;;;;;;3.60;1.58;;;-1.70;63.20;;;;;;5029728;28;20034;-62
2024/01/09 05:29:56;;;;;;;1.92;1.67;;;-1.80;63.20;;;;;;5032048;28;20108;-62
2024/01/09 05:32:21;;;;;;;1.80;1.38;;;-1.90;63.30;;;;;;5029650;28;20117;-62
2024/01/09 05:34:47;;;;;;;1.27;1.13;;;-1.90;63.40;;;;;;5025736;28;20021;-62
2024/01/09 05:37:13;;;;;;;2.08;1.13;;;-1.90;63.40;;;;;;5027227;28;20458;-63
2024/01/09 05:39:39;;;;;;;1.33;0.82;;;-1.90;63.40;;;;;;5029352;28;20676;-63
2024/01/09 05:42:04;;;;;;;1.98;1.17;;;-1.80;63.40;;;;;;5025381;28;20377;-62
2024/01/09 05:44:30;;;;;;;1.48;0.95;;;-1.90;63.40;;;;;;5031770;28;20117;-63
2024/01/09 05:46:56;;;;;;;1.40;0.90;;;-1.90;63.40;;;;;;5030202;28;20831;-62
2024/01/09 05:49:22;;;;;;;1.33;1.05;;;-1.90;63.50;;;;;;5034473;28;20955;-63
2024/01/09 05:51:47;;;;;;;3.03;1.02;;;-1.90;63.50;;;;;;4997089;28;20368;-62
2024/01/09 05:54:13;;;;;;;1.40;0.70;;;-1.90;63.60;;;;;;5032755;28;20360;-63
2024/01/09 05:56:39;;;;;;;1.50;1.27;;;-2.00;63.70;;;;;;5015202;28;20104;-62
2024/01/09 05:59:04;;;;;;;1.42;1.20;;;-2.00;63.80;;;;;;5041356;28;20500;-62
2024/01/09 06:01:30;;;;;;;2.95;1.23;;;-2.00;63.90;;;;;;5041468;28;20025;-62
2024/01/09 06:03:55;;;;;;;2.42;1.08;;;-2.00;63.80;;;;;;5036908;28;20146;-62
2024/01/09 06:06:21;;;;;;;1.50;0.82;;;-2.10;63.80;;;;;;5031121;28;20429;-63
2024/01/09 06:08:48;;;;;;;1.25;0.55;;;-2.10;63.80;;;;;;5034264;28;20716;-63
2024/01/09 06:11:14;;;;;;;2.35;1.20;;;-2.10;63.80;;;;;;5042150;28;20034;-63
2024/01/09 06:13:40;;;;;;;3.00;1.27;;;-2.10;63.80;;;;;;5041362;28;20044;-62
2024/01/09 06:16:06;;;;;;;1.58;0.90;;;-2.10;63.90;;;;;;5041291;28;20338;-63
2024/01/09 06:18:31;;;;;;;3.17;1.30;;;-2.10;63.70;;;;;;5037836;28;20464;-62
2024/01/09 06:20:57;;;;;;;1.02;0.68;;;-2.20;63.80;;;;;;5033368;28;20029;-62
2024/01/09 06:23:23;;;;;;;2.97;1.15;;;-2.20;63.80;;;;;;5033439;28;20146;-63
2024/01/09 06:25:48;;;;;;;4.53;1.70;;;-2.20;63.70;;;;;;5042901;28;20029;-63
2024/01/09 06:28:14;;;;;;;3.92;1.45;;;-2.20;63.70;;;;;;5036454;28;20036;-63
2024/01/09 06:30:39;;;;;;;2.72;1.55;;;-2.20;63.70;;;;;;5031535;28;20389;-63
2024/01/09 06:33:06;;;;;;;1.92;0.77;;;-2.20;63.70;;;;;;5036377;28;20373;-63
2024/01/09 06:35:31;;;;;;;2.40;1.52;;;-2.30;63.70;;;;;;5036721;28;20159;-63
2024/01/09 06:37:57;;;;;;;1.45;1.10;;;-2.30;63.90;;;;;;5037580;28;20160;-63
2024/01/09 06:40:24;;;;;;;2.08;1.20;;;-2.30;63.90;;;;;;5038231;28;20073;-63
2024/01/09 06:42:50;;;;;;;1.45;1.17;;;-2.40;63.80;;;;;;5038863;28;20437;-63
2024/01/09 06:45:16;;;;;;;2.60;1.50;;;-2.40;63.90;;;;;;5035712;28;20082;-63
2024/01/09 06:47:42;;;;;;;3.35;1.60;;;-2.50;64.00;;;;;;5029600;28;20060;-63
2024/01/09 06:50:08;;;;;;;3.03;1.70;;;-2.50;64.00;;;;;;5032628;28;20033;-63
2024/01/09 06:52:34;;;;;;;2.17;0.75;;;-2.50;64.00;;;;;;5033746;28;20088;-63
2024/01/09 06:55:00;;;;;;;2.80;1.08;;;-2.50;63.90;;;;;;5041977;28;20061;-63
2024/01/09 06:57:26;;;;;;;1.30;1.10;;;-2.50;64.40;;;;;;5035974;28;20411;-64
2024/01/09 06:59:51;;;;;;;1.70;1.20;;;-2.50;63.90;;;;;;5030890;28;20045;-64
2024/01/09 07:02:17;;;;;;;3.08;1.17;;;-2.50;63.90;;;;;;5039383;28;20082;-65
2024/01/09 07:04:43;;;;;;;2.15;1.20;;;-2.50;63.80;;;;;;5033195;28;20025;-65
2024/01/09 07:07:09;;;;;;;4.15;1.40;;;-2.50;63.60;;;;;;5034317;28;20041;-65
2024/01/09 07:09:34;;;;;;;1.90;1.27;;;-2.50;63.70;;;;;;5029755;28;20033;-64
2024/01/09 07:12:00;;;;;;;2.00;1.25;;;-2.50;63.60;;;;;;5034404;28;20090;-65
2024/01/09 07:14:26;;;;;;;1.48;1.23;;;-2.50;63.60;;;;;;5036188;28;20064;-63
2024/01/09 07:16:51;;;;;;;4.35;1.02;;;-2.50;63.60;;;;;;5068778;28;20033;-64
2024/01/09 07:19:17;;;;;;;2.38;1.30;;;-2.50;63.70;;;;;;5034830;28;20539;-63
2024/01/09 07:21:43;;;;;;;1.13;0.70;;;-2.50;63.80;;;;;;5041704;28;20384;-63
2024/01/09 07:24:08;;;;;;;2.80;1.55;;;-2.60;63.70;;;;;;5038589;28;20095;-63
2024/01/09 07:26:40;;;;;;;1.52;0.98;;;-2.50;63.70;;;;;;5035151;28;20029;-63
2024/01/09 07:29:06;;;;;;;2.95;1.00;;;-2.60;63.70;;;;;;5035563;28;20146;-63
2024/01/09 07:31:31;;;;;;;1.48;0.80;;;-2.60;63.60;;;;;;5036748;28;20078;-63
2024/01/09 07:33:58;;;;;;;1.38;1.08;;;-2.60;63.60;;;;;;5035181;28;20025;-64
2024/01/09 07:36:23;;;;;;;2.28;1.10;;;-2.60;63.50;;;;;;5041220;28;20025;-64
2024/01/09 07:38:49;;;;;;;1.83;1.08;;;-2.60;63.40;;;;;;5035095;28;20481;-63
2024/01/09 07:41:17;;;;;;;1.02;0.57;;;-2.60;63.50;;;;;;5031368;28;20037;-63
2024/01/09 07:43:43;;;;;;;1.80;1.15;;;-2.60;63.50;;;;;;5028051;28;20060;-63
2024/01/09 07:46:10;;;;;;;4.03;1.45;;;-2.60;63.50;;;;;;5031582;28;20032;-63
2024/01/09 07:48:36;;;;;;;1.45;0.98;;;-2.60;63.40;;;;;;5037279;28;20575;-62
2024/01/09 07:51:02;;;;;;;3.53;1.30;;;-2.50;63.20;;;;;;5032940;28;20143;-63
2024/01/09 07:53:28;;;;;;;1.27;1.17;;;-2.50;63.00;;;;;;5030341;28;20044;-62
2024/01/09 07:55:54;;;;;;;2.05;1.20;;;-2.50;62.90;;;;;;5036907;28;20025;-63
2024/01/09 07:58:19;;;;;;;5.68;1.73;;;-2.50;62.80;;;;;;5035752;28;20112;-62
2024/01/09 08:00:46;;;;;;;1.05;0.85;;;-2.40;62.70;;;;;;5037077;28;20549;-64
2024/01/09 08:03:13;;;;;;;2.50;1.05;;;-2.40;62.60;;;;;;5036082;28;20057;-62
2024/01/09 08:05:40;;;;;;;1.95;0.90;;;-2.50;62.50;;;;;;5035260;28;20040;-62
2024/01/09 08:08:06;;;;;;;2.05;1.27;;;-2.40;62.50;;;;;;5037109;28;20461;-62
2024/01/09 08:10:32;;;;;;;3.08;1.30;;;-2.40;62.60;;;;;;5031226;28;20160;-63
2024/01/09 08:12:58;;;;;;;1.15;0.90;;;-2.40;62.40;;;;;;5030163;28;20088;-63
2024/01/09 08:15:24;;;;;;;1.60;1.35;;;-2.40;62.30;;;;;;5033316;28;20025;-63
2024/01/09 08:17:50;;;;;;;1.15;1.02;;;-2.30;62.20;;;;;;5014971;28;20514;-61
2024/01/09 08:20:16;;;;;;;1.52;1.33;;;-2.30;62.20;;;;;;5031340;28;20041;-62
2024/01/09 08:22:42;;;;;;;1.13;1.02;;;-2.30;62.00;;;;;;5029426;28;20040;-62
2024/01/09 08:25:08;;;;;;;3.80;0.85;;;-2.30;61.90;;;;;;5027913;28;20845;-63
2024/01/09 08:27:34;;;;;;;1.27;1.15;;;-2.30;61.90;;;;;;5037877;28;20514;-62
2024/01/09 08:29:59;;;;;;;2.40;1.50;;;-2.30;61.90;;;;;;5035075;28;20049;-62
2024/01/09 08:32:25;;;;;;;3.13;1.20;;;-2.20;61.70;;;;;;5032877;28;20537;-61
2024/01/09 08:34:51;;;;;;;1.35;0.95;;;-2.20;61.50;;;;;;5034076;28;20021;-65
2024/01/09 08:37:17;;;;;;;1.88;0.93;;;-2.20;61.50;;;;;;5028649;28;20037;-67
2024/01/09 08:39:42;;;;;;;2.55;1.38;;;-2.20;61.20;;;;;;5028709;28;20061;-64
2024/01/09 08:42:08;;;;;;;3.00;1.63;;;-2.10;61.20;;;;;;5031065;28;20079;-62
2024/01/09 08:44:34;;;;;;;2.17;0.90;;;-2.10;61.10;;;;;;5036531;28;20106;-63
2024/01/09 08:47:00;;;;;;;1.35;1.10;;;-2.10;61.00;;;;;;5029845;28;20098;-64
2024/01/09 08:49:25;;;;;;;0.98;0.88;;;-2.10;60.80;;;;;;5029369;28;20025;-63
2024/01/09 08:51:51;;;;;;;3.33;1.05;;;-2.10;60.70;;;;;;5030244;28;20523;-64
2024/01/09 08:54:17;;;;;;;1.98;1.15;;;-2.00;60.40;;;;;;5035504;28;20031;-63
2024/01/09 08:56:43;;;;;;;1.80;0.82;;;-2.00;60.30;;;;;;5027448;28;20106;-63
2024/01/09 08:59:09;;;;;;;2.42;0.95;;;-2.00;60.20;;;;;;5030970;28;20124;-63
2024/01/09 09:01:37;;;;;;;1.80;1.00;;;-1.90;60.00;;;;;;5034077;28;20037;-63
2024/01/09 09:04:03;;;;;;;3.25;1.48;;;-1.90;59.80;;;;;;5018344;28;20766;-63
2024/01/09 09:06:29;;;;;;;1.10;1.00;;;-1.80;59.70;;;;;;5015635;28;20029;-63
2024/01/09 09:08:55;;;;;;;1.25;0.88;;;-1.80;59.60;;;;;;5025052;28;20091;-63
2024/01/09 09:11:20;;;;;;;2.13;1.10;;;-1.70;59.50;;;;;;5021538;28;20558;-62
2024/01/09 09:13:47;;;;;;;0.85;0.70;;;-1.70;59.20;;;;;;5024671;28;20025;-63
2024/01/09 09:16:16;;;;;;;2.53;1.45;;;-1.70;58.90;;;;;;5029087;28;20116;-64
2024/01/09 09:18:43;;;;;;;1.45;0.90;;;-1.70;58.50;;;;;;5027607;28;20117;-63
2024/01/09 09:21:09;;;;;;;4.82;1.08;;;-1.70;58.20;;;;;;5025756;28;20084;-64
2024/01/09 09:23:35;;;;;;;3.35;1.52;;;-1.60;58.10;;;;;;5026041;28;20065;-63
2024/01/09 09:26:01;;;;;;;1.52;1.10;;;-1.60;57.80;;;;;;5028627;28;20037;-64
2024/01/09 09:28:26;;;;;;;2.90;1.17;;;-1.50;57.80;;;;;;5023940;28;20176;-63
2024/01/09 09:30:53;;;;;;;2.70;1.20;;;-1.50;57.70;;;;;;5027524;28;20068;-63
2024/01/09 09:33:19;;;;;;;1.38;0.60;;;-1.50;57.50;;;;;;5032559;28;20031;-64
2024/01/09 09:35:46;;;;;;;2.67;1.15;;;-1.50;57.70;;;;;;5034360;28;20030;-64
2024/01/09 09:38:13;;;;;;;1.63;1.05;;;-1.50;57.90;;;;;;5025202;28;20052;-64
2024/01/09 09:40:38;;;;;;;5.97;1.80;;;-1.50;57.70;;;;;;5028529;28;20116;-66
2024/01/09 09:43:06;;;;;;;3.30;1.83;;;-1.50;57.80;;;;;;5036940;28;20109;-65
2024/01/09 09:45:32;;;;;;;1.83;0.95;;;-1.50;57.60;;;;;;5033954;28;20030;-65
2024/01/09 09:48:00;;;;;;;2.05;1.10;;;-1.40;57.80;;;;;;5034215;28;20036;-65
2024/01/09 09:50:26;;;;;;;1.55;0.85;;;-1.40;57.80;;;;;;5038232;28;20030;-67
2024/01/09 09:52:55;;;;;;;3.50;0.85;;;-1.40;57.80;;;;;;5036904;28;20029;-65
2024/01/09 09:55:22;;;;;;;1.90;1.05;;;-1.30;57.50;;;;;;5035023;28;20033;-64
2024/01/09 09:57:47;;;;;;;1.67;1.38;;;-1.30;57.20;;;;;;5028491;28;20027;-67
2024/01/09 10:00:14;;;;;;;1.40;0.88;;;-1.20;57.10;;;;;;5039984;28;20041;-65
2024/01/09 10:02:53;;;;;;;2.63;0.95;;;-1.20;56.90;;;;;;5037983;28;20037;-66
2024/01/09 10:05:19;;;;;;;0.98;0.93;;;-1.10;56.90;;;;;;5033020;28;20045;-65
2024/01/09 10:07:47;;;;;;;1.63;1.08;;;-1.10;56.70;;;;;;5028859;28;20087;-64
2024/01/09 10:10:14;;;;;;;2.25;0.95;;;-1.00;56.70;;;;;;5063015;28;20429;-65
2024/01/09 10:12:40;;;;;;;1.33;1.15;;;-1.00;56.70;;;;;;5031941;28;20396;-65
2024/01/09 10:15:07;;;;;;;1.40;0.57;;;-0.90;56.50;;;;;;5029480;28;20029;-65
2024/01/09 10:17:36;;;;;;;0.85;0.75;;;-0.80;56.50;;;;;;5030311;28;20037;-63
2024/01/09 10:20:04;;;;;;;1.38;1.02;;;-0.80;56.20;;;;;;5039332;28;20039;-65
2024/01/09 10:22:31;;;;;;;4.07;1.23;;;-0.70;56.00;;;;;;5033222;28;20033;-65
2024/01/09 10:24:57;;;;;;;2.58;1.58;;;-0.70;55.70;;;;;;5034091;28;20040;-65
2024/01/09 10:27:23;;;;;;;3.10;0.77;;;-0.70;56.00;;;;;;5038307;28;20116;-65
2024/01/09 10:29:49;;;;;;;1.73;1.15;;;-0.50;56.50;;;;;;5033015;28;20065;-65
2024/01/09 10:32:17;;;;;;;2.70;1.30;;;-0.20;56.20;;;;;;5036115;28;20025;-65
2024/01/09 10:34:43;;;;;;;2.97;1.42;;;0.90;55.70;;;;;;5031967;28;20034;-65
2024/01/09 10:37:09;;;;;;;4.18;1.33;;;3.10;52.10;;;;;;5038747;28;20506;-64
2024/01/09 10:39:35;;;;;;;2.20;1.27;;;5.20;47.80;;;;;;5028644;28;20033;-65
2024/01/09 10:42:12;;;;;;;2.78;1.73;;;7.10;45.00;;;;;;5035100;28;20040;-64
2024/01/09 10:44:41;;;;;;;2.03;1.40;;;8.80;41.80;;;;;;5020580;28;20351;-64
2024/01/09 10:47:13;;;;;;;1.25;1.15;;;9.70;39.40;;;;;;5033491;28;20041;-64
2024/01/09 10:49:43;;;;;;;3.38;1.58;;;9.70;39.20;;;;;;5033360;28;20033;-64
2024/01/09 10:52:16;;;;;;;4.35;1.73;;;8.80;38.80;;;;;;5033818;28;20119;-64
2024/01/09 10:54:46;;;;;;;5.30;1.30;;;8.00;39.80;;;;;;5034888;28;20034;-63
2024/01/09 10:57:13;;;;;;;2.63;1.35;;;7.40;40.60;;;;;;5034040;28;20088;-64
2024/01/09 10:59:43;;;;;;;2.47;1.15;;;6.90;41.10;;;;;;5030987;28;20033;-64
2024/01/09 11:02:17;;;;;;;1.10;1.00;;;7.10;41.60;;;;;;5032917;28;20033;-64
2024/01/09 11:04:46;;;;;;;1.85;1.25;;;8.30;40.60;;;;;;5033417;28;20029;-63
2024/01/09 11:07:14;;;;;;;2.00;1.42;;;9.30;38.80;;;;;;5039472;28;20115;-64
2024/01/09 11:09:46;;;;;;;1.27;0.95;;;9.70;37.40;;;;;;5030792;28;20025;-64
2024/01/09 11:12:25;;;;;;;3.55;1.25;;;10.00;37.60;;;;;;5031659;28;20038;-64
2024/01/09 11:15:25;;;;;;;2.92;1.08;;;11.00;37.10;;;;;;5029450;28;20628;-64
2024/01/09 11:18:07;;;;;;;1.75;1.00;;;12.50;34.30;;;;;;5031590;28;20269;-65
2024/01/09 11:20:34;;;;;;;1.35;0.63;;;14.10;32.90;;;;;;5030086;28;20021;-65
2024/01/09 11:23:00;;;;;;;2.25;1.25;;;15.30;30.70;;;;;;5023088;28;20034;-64
2024/01/09 11:25:31;;;;;;;2.00;1.30;;;16.10;29.50;;;;;;5026812;28;20032;-64
2024/01/09 11:27:57;;;;;;;3.13;1.40;;;16.50;28.90;;;;;;5028612;28;20404;-65
2024/01/09 11:30:27;;;;;;;0.95;0.82;;;16.80;28.90;;;;;;5019941;28;20167;-65
2024/01/09 11:32:53;;;;;;;2.17;0.88;;;17.20;28.10;;;;;;5030804;28;20444;-65
2024/01/09 11:35:20;;;;;;;2.92;0.95;;;17.90;27.70;;;;;;5034862;28;20083;-65
2024/01/09 11:37:48;;;;;;;1.75;1.02;;;18.60;27.80;;;;;;5036137;28;20033;-64
2024/01/09 11:40:16;;;;;;;3.90;1.20;;;19.20;27.10;;;;;;5036869;28;20087;-64
2024/01/09 11:42:50;;;;;;;3.45;1.25;;;19.40;26.40;;;;;;5030591;28;20389;-65
2024/01/09 11:45:24;;;;;;;2.08;1.20;;;19.50;26.40;;;;;;5029129;28;20412;-65
2024/01/09 11:47:50;;;;;;;3.45;1.52;;;19.80;25.80;;;;;;5028802;28;20034;-65
2024/01/09 11:50:16;;;;;;;6.40;1.40;;;20.10;25.20;;;;;;5032243;28;20061;-66
2024/01/09 11:52:43;;;;;;;11.13;1.40;;;20.30;25.40;;;;;;5034012;28;20056;-66
2024/01/09 11:55:10;;;;;;;1.70;1.23;;;20.30;24.70;;;;;;5029581;28;20566;-66
2024/01/09 11:57:39;;;;;;;2.10;0.93;;;20.30;24.60;;;;;;5029821;28;20120;-65
2024/01/09 12:00:06;;;;;;;1.45;1.17;;;20.40;24.60;;;;;;5032539;28;20047;-64
2024/01/09 12:02:38;;;;;;;2.35;1.25;;;20.60;24.40;;;;;;5033639;28;20100;-65
2024/01/09 12:05:05;;;;;;;;;;;20.80;24.30;;;;;;5032284;28;20460;-64
2024/01/09 12:07:39;;;;;;;2.25;1.25;;;21.00;23.70;;;;;;5034597;28;19970;-65
2024/01/09 12:10:07;;;;;;;1.45;1.05;;;21.30;23.70;;;;;;5033132;28;20021;-65
2024/01/09 12:12:32;;;;;;;2.08;0.90;;;21.50;23.90;;;;;;5025732;28;20120;-66
2024/01/09 12:14:59;;;;;;;3.22;1.33;;;21.70;23.50;;;;;;5033367;28;20033;-65
2024/01/09 12:17:34;;;;;;;2.10;1.13;;;21.80;23.10;;;;;;5023663;28;20109;-65
2024/01/09 12:20:01;;;;;;;2.22;1.77;;;22.00;23.40;;;;;;5010472;28;20068;-65
2024/01/09 12:22:28;;;;;;;3.55;1.15;;;22.10;22.70;;;;;;5032059;28;20040;-65
2024/01/09 12:24:55;;;;;;;1.67;1.00;;;22.20;23.00;;;;;;5030501;28;20052;-65
2024/01/09 12:27:23;;;;;;;1.65;1.10;;;22.20;22.70;;;;;;5031101;28;20492;-64
2024/01/09 12:29:51;;;;;;;1.58;0.93;;;22.20;22.80;;;;;;5029611;28;20068;-64
2024/01/09 12:32:18;;;;;;;3.30;0.88;;;22.50;22.80;;;;;;5031385;28;20026;-64
2024/01/09 12:34:45;;;;;;;3.22;1.17;;;22.80;22.60;;;;;;5031216;28;20033;-64
2024/01/09 12:37:11;;;;;;;1.42;0.85;;;22.90;22.60;;;;;;5035290;28;20468;-65
2024/01/09 12:39:37;;;;;;;1.92;0.85;;;22.90;22.40;;;;;;5032919;28;20037;-65
2024/01/09 12:42:12;;;;;;;1.95;1.10;;;22.90;22.40;;;;;;5031290;28;20029;-64
2024/01/09 12:44:43;;;;;;;1.85;1.27;;;22.70;22.30;;;;;;5028587;28;20029;-64